Time;durP1;ratioP1;P1;durP2;ratioP2;P2;SDS_P1;SDS_P2;PMS_P1;PMS_P2;Temp;Humidity;BMP_temperature;BMP_pressure;BME280_temperature;BME280_humidity;BME280_pressure;Samples;Min_cycle;Max_cycle;Signal;HPM_P1;HPM_P2
2022/02/07 00:01:28;;;;;;;16.17;1.47;;;3.20;99.90;;;;;;4961389;28;20050;-80
2022/02/07 00:03:59;;;;;;;20.73;2.77;;;3.20;99.90;;;;;;4961857;28;20045;-84
2022/02/07 00:06:28;;;;;;;25.57;1.53;;;3.20;99.90;;;;;;4957498;28;20045;-83
2022/02/07 00:08:55;;;;;;;16.43;2.20;;;3.30;99.90;;;;;;4975141;28;20046;-83
2022/02/07 00:11:22;;;;;;;18.63;1.80;;;3.30;99.90;;;;;;4959382;28;20041;-84
2022/02/07 00:13:49;;;;;;;16.50;1.30;;;3.40;99.90;;;;;;4974555;28;20041;-84
2022/02/07 00:16:16;;;;;;;19.27;1.87;;;3.40;99.90;;;;;;4975853;28;20038;-82
2022/02/07 00:18:43;;;;;;;23.43;2.17;;;3.50;99.90;;;;;;4962845;28;20162;-83
2022/02/07 00:21:10;;;;;;;13.93;2.03;;;3.50;99.90;;;;;;4991341;28;20060;-82
2022/02/07 00:23:37;;;;;;;15.97;1.60;;;3.60;99.90;;;;;;4954372;28;20058;-82
2022/02/07 00:26:03;;;;;;;16.17;1.77;;;3.70;99.90;;;;;;4975498;28;20326;-82
2022/02/07 00:28:30;;;;;;;6.80;0.80;;;3.70;99.90;;;;;;4944580;28;20042;-82
2022/02/07 00:30:56;;;;;;;3.70;0.40;;;3.60;99.90;;;;;;4977485;28;20031;-82
2022/02/07 00:33:23;;;;;;;6.03;0.63;;;3.50;99.90;;;;;;4955885;28;20049;-86
2022/02/07 00:35:50;;;;;;;4.35;0.77;;;3.40;99.90;;;;;;4957353;28;20038;-86
2022/02/07 00:38:19;;;;;;;3.33;0.43;;;3.20;99.90;;;;;;4928753;28;20038;-86
2022/02/07 00:41:12;;;;;;;4.93;0.53;;;3.10;99.90;;;;;;4947302;28;20025;-86
2022/02/07 00:43:41;;;;;;;8.00;1.55;;;3.00;99.90;;;;;;4956930;28;20053;-86
2022/02/07 00:46:12;;;;;;;5.37;0.40;;;2.90;99.90;;;;;;4962984;28;20046;-85
2022/02/07 00:48:40;;;;;;;7.80;0.52;;;2.90;99.90;;;;;;4960853;28;20473;-85
2022/02/07 00:51:10;;;;;;;6.63;0.50;;;2.90;99.90;;;;;;4960682;28;20038;-87
2022/02/07 00:53:37;;;;;;;5.00;0.40;;;2.90;99.90;;;;;;4955670;28;20046;-81
2022/02/07 00:56:05;;;;;;;6.18;0.50;;;2.80;99.90;;;;;;4941507;28;20030;-89
2022/02/07 00:58:35;;;;;;;12.97;1.37;;;2.80;99.90;;;;;;4960866;28;20042;-83
2022/02/07 01:01:06;;;;;;;7.50;1.27;;;2.80;99.90;;;;;;4961439;28;20045;-84
2022/02/07 01:03:43;;;;;;;11.00;0.83;;;2.80;99.90;;;;;;4941570;28;20326;-85
2022/02/07 01:06:10;;;;;;;8.23;0.77;;;2.80;99.90;;;;;;4943874;28;20045;-84
2022/02/07 01:08:42;;;;;;;11.87;0.97;;;2.80;99.90;;;;;;4978917;28;20488;-84
2022/02/07 01:11:45;;;;;;;9.37;0.67;;;2.90;99.90;;;;;;4963474;28;20397;-85
2022/02/07 01:14:26;;;;;;;7.30;0.90;;;2.90;99.90;;;;;;4977046;28;20030;-85
2022/02/07 01:17:37;;;;;;;10.57;0.90;;;2.90;99.90;;;;;;4977477;28;20041;-85
2022/02/07 01:55:32;;;;;;;16.20;1.30;;;2.90;99.90;;;;;;4971330;28;20038;-85
2022/02/07 01:58:01;;;;;;;13.33;1.53;;;2.90;99.90;;;;;;4992456;28;20030;-85
2022/02/07 02:01:29;;;;;;;15.37;1.67;;;2.90;99.90;;;;;;4962856;28;20041;-85
2022/02/07 02:04:03;;;;;;;18.90;2.17;;;3.00;99.90;;;;;;4946571;28;20035;-85
2022/02/07 02:10:19;;;;;;;12.67;1.23;;;3.00;99.90;;;;;;4950584;28;20038;-84
2022/02/07 02:13:04;;;;;;;17.45;1.30;;;3.00;99.90;;;;;;4951138;28;20026;-85
2022/02/07 02:15:45;;;;;;;11.95;1.55;;;3.00;99.90;;;;;;4949174;28;20042;-85
2022/02/07 02:37:11;;;;;;;19.07;1.70;;;3.20;99.90;;;;;;4993727;28;20027;-84
2022/02/07 02:45:35;;;;;;;20.00;1.70;;;3.30;99.90;;;;;;4948472;28;20046;-84
2022/02/07 02:48:23;;;;;;;16.37;1.60;;;3.20;99.90;;;;;;4963946;28;20030;-84
2022/02/07 02:50:54;;;;;;;15.63;1.20;;;3.20;99.90;;;;;;4963689;28;20037;-84
2022/02/07 02:53:22;;;;;;;17.40;1.70;;;3.20;99.90;;;;;;4950405;28;20385;-85
2022/02/07 02:55:52;;;;;;;18.67;2.13;;;3.30;99.90;;;;;;4977870;28;20025;-84
2022/02/07 02:58:24;;;;;;;25.30;2.40;;;3.30;99.90;;;;;;4928304;28;20030;-84
2022/02/07 03:00:55;;;;;;;23.35;1.83;;;3.30;99.90;;;;;;4980341;28;20026;-84
2022/02/07 03:03:30;;;;;;;18.53;1.87;;;3.30;99.90;;;;;;4962457;28;20402;-84
2022/02/07 03:05:58;;;;;;;17.07;2.00;;;3.30;99.90;;;;;;4975745;28;20026;-84
2022/02/07 03:08:25;;;;;;;22.53;2.13;;;3.40;99.90;;;;;;4995969;28;20512;-84
2022/02/07 03:11:05;;;;;;;23.57;2.57;;;3.30;99.90;;;;;;4966648;28;20022;-84
2022/02/07 03:13:46;;;;;;;22.45;2.20;;;3.40;99.90;;;;;;4993391;28;20054;-84
2022/02/07 03:16:39;;;;;;;23.55;2.08;;;3.40;99.90;;;;;;4946370;28;20492;-84
2022/02/07 03:19:10;;;;;;;13.45;2.38;;;3.40;99.90;;;;;;4964011;28;20025;-83
2022/02/07 03:21:38;;;;;;;29.30;2.70;;;3.30;99.90;;;;;;4975740;28;20023;-83
2022/02/07 03:24:09;;;;;;;17.57;2.27;;;3.30;99.90;;;;;;4945516;28;20039;-84
2022/02/07 03:26:44;;;;;;;19.77;2.50;;;3.30;99.90;;;;;;4963095;28;20022;-84
2022/02/07 03:29:15;;;;;;;28.13;2.60;;;3.40;99.90;;;;;;4991515;28;20034;-83
2022/02/07 03:31:46;;;;;;;17.90;2.23;;;3.40;99.90;;;;;;4948008;28;20030;-83
2022/02/07 03:34:25;;;;;;;17.93;1.53;;;3.50;99.90;;;;;;4927622;28;20046;-84
2022/02/07 03:36:54;;;;;;;18.77;2.40;;;3.50;99.90;;;;;;4924553;28;20042;-83
2022/02/07 03:39:29;;;;;;;16.83;2.30;;;3.60;99.90;;;;;;4981185;28;20029;-83
2022/02/07 03:41:56;;;;;;;21.63;2.23;;;3.60;99.90;;;;;;4998314;28;20030;-84
2022/02/07 03:44:23;;;;;;;20.73;2.10;;;3.60;99.90;;;;;;4963534;28;20033;-83
2022/02/07 03:46:53;;;;;;;25.83;2.13;;;3.60;99.90;;;;;;4981034;28;20041;-83
2022/02/07 03:49:25;;;;;;;16.13;2.37;;;3.60;99.90;;;;;;4976804;28;20037;-84
2022/02/07 03:51:52;;;;;;;24.27;2.40;;;3.70;99.90;;;;;;4963403;28;20041;-83
2022/02/07 03:54:26;;;;;;;16.77;1.67;;;3.70;99.90;;;;;;4976641;28;20041;-83
2022/02/07 03:56:57;;;;;;;23.27;2.27;;;3.80;99.90;;;;;;4980439;28;20040;-83
2022/02/07 03:59:27;;;;;;;19.50;1.48;;;3.90;99.90;;;;;;4964184;28;20026;-83
2022/02/07 04:01:56;;;;;;;23.63;2.83;;;4.00;99.90;;;;;;4974890;28;20029;-83
2022/02/07 04:04:53;;;;;;;26.47;2.97;;;4.10;99.90;;;;;;4970378;28;20054;-83
2022/02/07 04:07:20;;;;;;;31.23;2.70;;;4.10;99.90;;;;;;4979573;28;20026;-83
2022/02/07 04:09:53;;;;;;;16.17;2.80;;;4.20;99.90;;;;;;4964861;28;20393;-83
2022/02/07 04:12:26;;;;;;;21.45;2.05;;;4.20;99.90;;;;;;4948217;28;20041;-84
2022/02/07 04:15:02;;;;;;;22.83;2.03;;;4.30;99.90;;;;;;4942486;28;20054;-84
2022/02/07 04:17:33;;;;;;;13.40;2.47;;;4.30;99.90;;;;;;4985412;28;20038;-83
2022/02/07 04:20:06;;;;;;;15.95;1.98;;;4.30;99.90;;;;;;4982745;28;20022;-83
2022/02/07 04:22:43;;;;;;;22.77;2.47;;;4.30;99.90;;;;;;4980187;28;20046;-83
2022/02/07 04:25:33;;;;;;;20.73;2.87;;;4.40;99.90;;;;;;4992978;28;20025;-83
2022/02/07 04:28:11;;;;;;;22.10;2.40;;;4.40;99.90;;;;;;4965773;28;20037;-83
2022/02/07 04:30:45;;;;;;;26.50;2.97;;;4.40;99.90;;;;;;4996640;28;20038;-83
2022/02/07 04:33:13;;;;;;;15.27;2.47;;;4.50;99.90;;;;;;4978202;28;20030;-83
2022/02/07 04:35:40;;;;;;;17.85;1.83;;;4.50;99.90;;;;;;4975520;28;20031;-83
2022/02/07 04:38:07;;;;;;;24.00;2.40;;;4.60;99.90;;;;;;4949438;28;20026;-83
2022/02/07 04:40:37;;;;;;;24.20;2.35;;;4.60;99.90;;;;;;4963472;28;20041;-83
2022/02/07 04:43:04;;;;;;;18.85;1.77;;;4.70;99.90;;;;;;4979945;28;20018;-84
2022/02/07 04:45:43;;;;;;;29.92;2.88;;;4.80;99.90;;;;;;4951449;28;20042;-83
2022/02/07 04:53:39;;;;;;;29.02;2.22;;;4.80;99.90;;;;;;4959094;28;20283;-83
2022/02/07 04:58:57;;;;;;;14.85;1.45;;;4.90;99.90;;;;;;4944624;28;20038;-83
2022/02/07 05:01:45;;;;;;;18.15;2.65;;;4.90;99.90;;;;;;4959064;28;20027;-83
2022/02/07 05:04:23;;;;;;;15.50;1.53;;;4.90;99.90;;;;;;4954307;28;20042;-82
2022/02/07 05:15:11;;;;;;;20.00;1.92;;;5.00;99.90;;;;;;4947129;28;20497;-83
2022/02/07 05:17:39;;;;;;;19.42;2.08;;;5.00;99.90;;;;;;4978577;28;20038;-83
2022/02/07 05:20:26;;;;;;;14.73;1.92;;;5.00;99.90;;;;;;4964072;28;20030;-83
2022/02/07 05:23:19;;;;;;;;;;;5.00;99.90;;;;;;4951381;28;20053;-83
2022/02/07 05:26:19;;;;;;;14.77;1.23;;;5.10;99.90;;;;;;4915336;28;19922;-83
2022/02/07 05:29:07;;;;;;;15.43;1.58;;;5.10;99.90;;;;;;4948118;28;20049;-84
2022/02/07 05:31:53;;;;;;;17.30;2.45;;;5.10;99.90;;;;;;4974733;28;20054;-83
2022/02/07 05:34:44;;;;;;;24.98;2.60;;;5.10;99.90;;;;;;4959543;28;20401;-83
2022/02/07 05:37:32;;;;;;;17.70;1.90;;;5.10;99.90;;;;;;4978213;28;20018;-83
2022/02/07 05:40:14;;;;;;;17.77;2.38;;;5.10;99.90;;;;;;4953061;28;20039;-83
2022/02/07 05:42:59;;;;;;;17.45;1.67;;;5.10;99.90;;;;;;4980567;28;20461;-82
2022/02/07 05:45:45;;;;;;;17.10;1.80;;;5.20;99.90;;;;;;4990668;28;20045;-83
2022/02/07 05:48:41;;;;;;;22.83;2.90;;;5.20;99.90;;;;;;4948997;28;20062;-83
2022/02/07 05:51:37;;;;;;;23.20;3.13;;;5.20;99.90;;;;;;4937048;28;20039;-82
2022/02/07 05:54:23;;;;;;;18.33;3.20;;;5.20;99.90;;;;;;4958625;28;20066;-82
2022/02/07 05:56:59;;;;;;;21.52;2.15;;;5.20;99.90;;;;;;4920955;28;20030;-82
2022/02/07 05:59:37;;;;;;;20.67;2.45;;;5.20;99.90;;;;;;4919963;28;20027;-82
2022/02/07 06:02:24;;;;;;;20.10;1.60;;;5.30;99.90;;;;;;4942567;28;20087;-83
2022/02/07 06:04:57;;;;;;;22.33;2.53;;;5.30;99.90;;;;;;4915297;28;20061;-83
2022/02/07 06:07:23;;;;;;;14.38;1.58;;;5.30;99.90;;;;;;4932651;28;20035;-83
2022/02/07 06:09:51;;;;;;;10.85;0.95;;;5.30;99.90;;;;;;4902886;28;22837;-83
2022/02/07 06:12:18;;;;;;;5.10;0.90;;;5.20;99.90;;;;;;4933257;28;20046;-85
2022/02/07 06:14:54;;;;;;;11.73;1.15;;;5.10;99.90;;;;;;4928724;28;20039;-84
2022/02/07 06:17:21;;;;;;;8.60;1.10;;;5.00;99.90;;;;;;4917101;28;20027;-84
2022/02/07 06:19:47;;;;;;;17.40;1.88;;;4.90;99.90;;;;;;4917621;28;20035;-83
2022/02/07 06:22:14;;;;;;;10.07;1.45;;;4.80;99.90;;;;;;4932025;28;20382;-84
2022/02/07 06:24:43;;;;;;;17.85;1.77;;;4.80;99.90;;;;;;4946292;28;20030;-84
2022/02/07 06:27:13;;;;;;;16.05;2.60;;;4.80;99.90;;;;;;4927120;28;20058;-84
2022/02/07 06:29:41;;;;;;;13.20;1.13;;;4.80;99.90;;;;;;4965413;28;20116;-84
2022/02/07 06:32:10;;;;;;;12.88;1.50;;;4.70;99.90;;;;;;4941516;28;20034;-84
2022/02/07 06:34:36;;;;;;;23.08;2.08;;;4.50;99.90;;;;;;4947491;28;20043;-85
2022/02/07 06:37:03;;;;;;;22.85;2.10;;;4.50;99.90;;;;;;4950101;28;20032;-86
2022/02/07 06:39:37;;;;;;;23.02;2.38;;;4.30;99.90;;;;;;4933691;28;20047;-84
2022/02/07 06:42:04;;;;;;;27.77;2.63;;;4.40;99.90;;;;;;4932836;28;20023;-82
2022/02/07 06:44:32;;;;;;;28.00;2.40;;;4.30;99.90;;;;;;4948158;28;20489;-89
2022/02/07 06:47:48;;;;;;;17.75;2.15;;;4.30;99.90;;;;;;4917665;28;20057;-85
2022/02/07 06:50:16;;;;;;;18.45;2.55;;;4.30;99.90;;;;;;4948312;28;20135;-86
2022/02/07 06:52:45;;;;;;;23.75;2.47;;;4.20;99.90;;;;;;4949064;28;20065;-85
2022/02/07 06:55:14;;;;;;;17.40;3.10;;;4.10;99.90;;;;;;4953532;28;20047;-87
2022/02/07 06:57:59;;;;;;;20.70;2.25;;;4.10;99.90;;;;;;4978102;28;20031;-86
2022/02/07 07:00:30;;;;;;;10.73;1.48;;;4.10;99.90;;;;;;4993140;28;20049;-84
2022/02/07 07:03:20;;;;;;;;;;;4.10;99.90;;;;;;4976545;28;20033;-87
2022/02/07 07:06:24;;;;;;;21.10;2.57;;;4.10;99.90;;;;;;4958630;28;19910;-86
2022/02/07 07:09:15;;;;;;;21.70;2.65;;;4.10;99.90;;;;;;4967013;28;20029;-87
2022/02/07 07:11:53;;;;;;;20.92;2.38;;;4.20;99.90;;;;;;4976107;28;20073;-88
2022/02/07 07:14:39;;;;;;;28.58;3.20;;;4.30;99.90;;;;;;4963559;28;20029;-86
2022/02/07 07:17:06;;;;;;;25.35;2.65;;;4.30;99.90;;;;;;4979754;28;20030;-86
2022/02/07 07:19:40;;;;;;;24.85;2.65;;;4.40;99.90;;;;;;4988583;28;20118;-85
2022/02/07 07:22:08;;;;;;;20.52;1.92;;;4.40;99.90;;;;;;4969399;28;20038;-85
2022/02/07 07:24:37;;;;;;;36.47;3.57;;;4.30;99.90;;;;;;4979048;28;20026;-84
2022/02/07 07:27:06;;;;;;;14.32;1.60;;;4.30;99.90;;;;;;4955739;28;20030;-84
2022/02/07 07:29:39;;;;;;;23.98;2.58;;;4.30;99.90;;;;;;4986908;28;20022;-85
2022/02/07 07:32:12;;;;;;;20.90;2.95;;;4.30;99.90;;;;;;4969880;28;20042;-85
2022/02/07 07:34:49;;;;;;;21.13;2.65;;;4.30;99.90;;;;;;4964703;28;20113;-86
2022/02/07 07:37:20;;;;;;;26.42;3.05;;;4.20;99.90;;;;;;4997190;28;20026;-85
2022/02/07 07:39:48;;;;;;;21.40;2.20;;;4.30;99.90;;;;;;4983600;28;20030;-85
2022/02/07 07:42:15;;;;;;;33.67;3.03;;;4.30;99.90;;;;;;4958787;28;20069;-83
2022/02/07 07:45:25;;;;;;;28.87;2.63;;;4.20;99.90;;;;;;4912079;28;20054;-83
2022/02/07 07:48:10;;;;;;;23.83;2.78;;;4.20;99.90;;;;;;4935607;28;20027;-83
2022/02/07 07:51:20;;;;;;;23.27;2.87;;;4.20;99.90;;;;;;4957211;28;20054;-83
2022/02/07 07:54:24;;;;;;;27.80;2.22;;;4.20;99.90;;;;;;4960873;28;20037;-84
2022/02/07 08:02:54;;;;;;;20.45;2.20;;;4.20;99.90;;;;;;4946441;28;20054;-81
2022/02/07 08:05:43;;;;;;;29.33;2.40;;;4.30;99.90;;;;;;4958033;28;20037;-82
2022/02/07 08:08:28;;;;;;;25.15;2.58;;;4.40;99.90;;;;;;4964456;28;20401;-85
2022/02/07 08:11:07;;;;;;;22.50;2.63;;;4.40;99.90;;;;;;4963510;28;20027;-84
2022/02/07 08:13:41;;;;;;;23.20;2.97;;;4.50;99.90;;;;;;4943194;28;20038;-87
2022/02/07 08:16:16;;;;;;;18.02;2.13;;;4.60;99.90;;;;;;4958915;28;20045;-83
2022/02/07 08:18:43;;;;;;;31.70;4.17;;;4.60;99.90;;;;;;4995135;28;20049;-85
2022/02/07 08:21:09;;;;;;;27.23;4.45;;;4.70;99.90;;;;;;4956182;28;20487;-84
2022/02/07 08:23:36;;;;;;;19.65;2.35;;;4.70;99.90;;;;;;4959327;28;20046;-84
2022/02/07 08:26:04;;;;;;;23.80;3.23;;;4.80;99.90;;;;;;4961632;28;20050;-83
2022/02/07 08:28:34;;;;;;;27.83;2.88;;;4.90;99.90;;;;;;4960111;28;20496;-82
2022/02/07 08:31:00;;;;;;;22.58;2.33;;;5.00;99.90;;;;;;4962170;28;20583;-81
2022/02/07 08:33:27;;;;;;;23.73;2.47;;;5.00;99.90;;;;;;4957981;28;20039;-82
2022/02/07 08:35:53;;;;;;;28.02;3.58;;;5.00;99.90;;;;;;4972632;28;20046;-81
2022/02/07 08:38:20;;;;;;;27.30;3.58;;;5.10;99.90;;;;;;4971862;28;20037;-81
2022/02/07 08:40:47;;;;;;;17.95;2.53;;;5.20;99.90;;;;;;4940404;28;20522;-79
2022/02/07 08:43:13;;;;;;;22.55;2.10;;;5.20;99.90;;;;;;4972561;28;20023;-81
2022/02/07 08:45:40;;;;;;;32.55;3.85;;;5.30;99.90;;;;;;4973039;28;20030;-82
2022/02/07 08:48:10;;;;;;;19.98;3.38;;;5.30;99.90;;;;;;4956776;28;20033;-82
2022/02/07 08:50:37;;;;;;;23.42;3.15;;;5.40;99.90;;;;;;4959156;28;20500;-81
2022/02/07 08:53:04;;;;;;;23.48;4.13;;;5.50;99.90;;;;;;4987270;28;20509;-84
2022/02/07 08:55:36;;;;;;;23.70;2.30;;;5.50;99.90;;;;;;4985946;28;20054;-80
2022/02/07 08:58:09;;;;;;;25.35;3.75;;;5.60;99.90;;;;;;4960319;28;20049;-82
2022/02/07 09:11:15;;;;;;;32.50;4.80;;;5.90;99.90;;;;;;4990093;28;20022;-80
2022/02/07 09:13:44;;;;;;;28.75;2.88;;;6.00;99.90;;;;;;4939438;28;20049;-81
2022/02/07 09:16:34;;;;;;;26.80;3.85;;;6.00;99.90;;;;;;4973242;28;20410;-84
2022/02/07 09:19:02;;;;;;;41.63;6.28;;;6.10;99.90;;;;;;4962227;28;20038;-86
2022/02/07 09:21:29;;;;;;;24.77;3.15;;;6.20;99.90;;;;;;4956867;28;20025;-88
2022/02/07 09:23:57;;;;;;;28.58;3.53;;;6.30;99.90;;;;;;4974309;28;20039;-87
2022/02/07 09:26:25;;;;;;;28.20;3.03;;;6.30;99.90;;;;;;4961829;28;20055;-85
2022/02/07 09:28:53;;;;;;;25.65;3.50;;;6.40;99.90;;;;;;4943601;28;20041;-83
2022/02/07 09:31:23;;;;;;;24.35;3.08;;;6.40;99.90;;;;;;4990173;28;20038;-85
2022/02/07 09:33:53;;;;;;;25.58;2.42;;;6.50;99.90;;;;;;4968594;28;20053;-84
2022/02/07 09:36:21;;;;;;;28.50;4.03;;;6.60;99.90;;;;;;4956054;28;20030;-84
2022/02/07 09:38:49;;;;;;;27.52;2.85;;;6.60;99.90;;;;;;4973469;28;20022;-85
2022/02/07 09:41:21;;;;;;;29.80;2.97;;;6.70;99.90;;;;;;4976666;28;20025;-84
2022/02/07 09:43:53;;;;;;;25.98;4.35;;;6.90;99.90;;;;;;4985621;28;20034;-85
2022/02/07 09:46:33;;;;;;;21.02;2.20;;;7.10;99.90;;;;;;4938901;28;22939;-85
2022/02/07 09:49:00;;;;;;;29.58;3.25;;;7.30;99.90;;;;;;4973639;28;20497;-84
2022/02/07 09:51:27;;;;;;;34.00;4.50;;;7.40;99.90;;;;;;4941343;28;20038;-85
2022/02/07 09:53:53;;;;;;;27.63;2.67;;;7.50;99.90;;;;;;4954808;28;20038;-85
2022/02/07 09:56:20;;;;;;;23.52;2.33;;;7.60;99.90;;;;;;4970501;28;20042;-85
2022/02/07 09:58:50;;;;;;;22.55;2.85;;;7.80;99.90;;;;;;4986564;28;20030;-84
2022/02/07 10:01:25;;;;;;;27.25;3.15;;;8.00;99.90;;;;;;4962110;28;20030;-84
2022/02/07 10:09:13;;;;;;;25.08;2.75;;;8.20;99.90;;;;;;4949381;28;20049;-85
2022/02/07 10:12:09;;;;;;;26.02;2.80;;;8.10;99.90;;;;;;4943650;28;20034;-86
2022/02/07 10:34:28;;;;;;;17.30;2.08;;;7.60;99.90;;;;;;4978384;28;20485;-85
2022/02/07 10:48:39;;;;;;;18.10;2.50;;;8.30;99.90;;;;;;4992960;28;20034;-84
2022/02/07 10:51:07;;;;;;;11.63;2.20;;;8.60;99.90;;;;;;4988984;28;20038;-85
2022/02/07 10:53:36;;;;;;;14.88;2.58;;;9.00;99.90;;;;;;4966356;28;20102;-84
2022/02/07 10:56:03;;;;;;;15.85;1.85;;;9.30;99.90;;;;;;4960845;28;20045;-85
2022/02/07 10:58:30;;;;;;;15.05;2.80;;;9.60;99.90;;;;;;4960863;28;20045;-85
2022/02/07 11:01:06;;;;;;;20.25;2.78;;;9.80;99.90;;;;;;4964099;28;20034;-85
2022/02/07 11:03:40;;;;;;;13.45;2.05;;;9.90;99.90;;;;;;4961744;28;20040;-84
2022/02/07 11:06:09;;;;;;;21.63;3.13;;;10.10;99.90;;;;;;4976281;28;20390;-84
2022/02/07 11:08:50;;;;;;;13.77;2.00;;;10.40;99.90;;;;;;4943203;28;20046;-88
2022/02/07 11:11:41;;;;;;;14.35;1.70;;;10.60;99.90;;;;;;4957533;28;20031;-86
2022/02/07 11:17:25;;;;;;;12.35;1.77;;;10.10;99.90;;;;;;4974788;28;20038;-86
2022/02/07 11:25:38;;;;;;;10.82;1.42;;;9.50;99.90;;;;;;4974182;28;20367;-89
2022/02/07 11:28:21;;;;;;;11.95;2.10;;;9.30;99.90;;;;;;4945584;28;20490;-91
2022/02/07 11:31:04;;;;;;;15.25;1.90;;;9.30;99.90;;;;;;4975509;28;20038;-89
2022/02/07 11:34:01;;;;;;;17.13;1.50;;;9.40;99.90;;;;;;4957875;28;20041;-81
2022/02/07 11:36:36;;;;;;;11.70;1.38;;;9.40;99.90;;;;;;4991308;28;20033;-84
2022/02/07 11:39:10;;;;;;;12.60;1.10;;;9.50;99.90;;;;;;4988701;28;20034;-80
2022/02/07 11:41:55;;;;;;;10.43;1.50;;;9.50;99.90;;;;;;4979303;28;20382;-81
2022/02/07 11:44:38;;;;;;;14.35;1.27;;;9.50;99.90;;;;;;4958414;28;20034;-81
2022/02/07 11:47:29;;;;;;;12.75;1.73;;;9.60;99.90;;;;;;4966947;28;20088;-81
2022/02/07 11:50:02;;;;;;;12.05;1.42;;;9.70;99.90;;;;;;4963165;28;20023;-82
2022/02/07 11:52:31;;;;;;;14.57;1.40;;;9.80;99.90;;;;;;4988188;28;20033;-81
2022/02/07 11:55:04;;;;;;;12.02;1.50;;;9.90;99.90;;;;;;4948921;28;20034;-82
2022/02/07 11:57:36;;;;;;;16.55;1.30;;;9.80;99.90;;;;;;4995582;28;20034;-82
2022/02/07 12:00:15;;;;;;;13.18;1.13;;;9.70;99.90;;;;;;4964959;28;20047;-82
2022/02/07 12:02:49;;;;;;;12.05;0.90;;;9.70;99.90;;;;;;4982118;28;20018;-82
2022/02/07 12:05:23;;;;;;;11.60;1.55;;;9.70;99.90;;;;;;4956433;28;20042;-82
2022/02/07 12:08:02;;;;;;;9.90;0.82;;;9.70;99.90;;;;;;4962801;28;20022;-81
2022/02/07 12:13:04;;;;;;;11.07;1.92;;;9.70;99.90;;;;;;4989335;28;20026;-83
2022/02/07 12:15:48;;;;;;;6.60;1.33;;;9.70;99.90;;;;;;4987595;28;20031;-84
2022/02/07 12:18:14;;;;;;;12.00;1.30;;;9.80;99.90;;;;;;4960560;28;20037;-84
2022/02/07 12:20:43;;;;;;;15.98;2.17;;;9.80;99.90;;;;;;4994018;28;20038;-83
2022/02/07 12:23:13;;;;;;;14.98;1.40;;;9.80;99.90;;;;;;4991162;28;20036;-83
2022/02/07 12:25:48;;;;;;;10.13;0.98;;;10.00;99.90;;;;;;4973556;28;20033;-84
2022/02/07 12:28:31;;;;;;;11.98;1.65;;;10.30;99.90;;;;;;4978888;28;20045;-85
2022/02/07 12:33:30;;;;;;;11.43;1.63;;;10.90;99.90;;;;;;4975087;28;20048;-86
2022/02/07 12:35:57;;;;;;;14.93;2.15;;;10.60;99.90;;;;;;4958119;28;20048;-88
2022/02/07 12:38:30;;;;;;;16.70;2.65;;;10.10;99.90;;;;;;4975806;28;20034;-90
2022/02/07 12:40:58;;;;;;;12.40;1.80;;;9.70;99.90;;;;;;4958143;28;20065;-89
2022/02/07 12:43:25;;;;;;;11.93;1.30;;;9.30;99.90;;;;;;4962941;28;20029;-90
2022/02/07 12:45:52;;;;;;;9.77;1.27;;;9.00;99.90;;;;;;4963305;28;20049;-90
2022/02/07 12:48:25;;;;;;;12.30;2.25;;;8.90;99.90;;;;;;4948951;28;20038;-89
2022/02/07 12:50:54;;;;;;;12.40;1.60;;;8.80;99.90;;;;;;4965918;28;20031;-90
2022/02/07 12:53:23;;;;;;;7.45;1.10;;;8.70;99.90;;;;;;4959481;28;20045;-80
2022/02/07 12:55:56;;;;;;;12.57;1.05;;;8.70;99.90;;;;;;4994566;28;20034;-87
2022/02/07 12:58:32;;;;;;;;;;;8.80;99.90;;;;;;4955637;28;20401;-88
2022/02/07 13:01:14;;;;;;;7.00;0.70;;;8.80;99.90;;;;;;4975075;28;19905;-88
2022/02/07 13:04:15;;;;;;;14.43;0.98;;;8.80;99.90;;;;;;4961642;28;20465;-86
2022/02/07 13:06:44;;;;;;;13.43;1.30;;;8.70;99.90;;;;;;4960490;28;20041;-87
2022/02/07 13:09:31;;;;;;;10.55;0.80;;;8.60;99.90;;;;;;4946658;28;20037;-87
2022/02/07 13:14:41;;;;;;;11.88;1.38;;;8.30;99.90;;;;;;4973182;28;20021;-88
2022/02/07 13:17:11;;;;;;;9.50;0.70;;;8.20;99.90;;;;;;4971489;28;20030;-89
2022/02/07 13:19:41;;;;;;;10.48;0.77;;;8.20;99.90;;;;;;4933290;28;20033;-87
2022/02/07 13:22:08;;;;;;;11.40;1.40;;;8.30;99.90;;;;;;4947606;28;20401;-87
2022/02/07 13:24:37;;;;;;;11.68;0.93;;;8.50;99.90;;;;;;4972552;28;20045;-87
2022/02/07 13:27:10;;;;;;;10.57;1.40;;;8.50;99.90;;;;;;4991251;28;20488;-87
2022/02/07 13:29:49;;;;;;;12.75;1.60;;;8.60;99.90;;;;;;4974316;28;20030;-87
2022/02/07 13:32:29;;;;;;;12.02;1.05;;;8.60;99.90;;;;;;4959988;28;20038;-87
2022/02/07 13:35:10;;;;;;;9.20;1.05;;;8.70;99.90;;;;;;4956485;28;20049;-87
2022/02/07 13:37:39;;;;;;;13.55;0.95;;;8.70;99.90;;;;;;4960717;28;20033;-87
2022/02/07 13:40:18;;;;;;;8.55;1.13;;;8.70;99.90;;;;;;4949927;28;20041;-86
2022/02/07 13:42:46;;;;;;;5.20;0.80;;;8.70;99.90;;;;;;4974169;28;20037;-87
2022/02/07 13:45:18;;;;;;;8.55;1.15;;;8.70;99.90;;;;;;4960770;28;20018;-87
2022/02/07 13:47:56;;;;;;;7.47;1.05;;;8.80;99.90;;;;;;4973503;28;20030;-87
2022/02/07 13:50:27;;;;;;;7.15;0.90;;;8.90;99.90;;;;;;4990710;28;20034;-88
2022/02/07 13:52:58;;;;;;;7.95;0.77;;;8.90;99.90;;;;;;4992269;28;20029;-86
2022/02/07 13:55:28;;;;;;;9.27;1.08;;;8.90;99.90;;;;;;4940803;28;20050;-86
2022/02/07 13:57:59;;;;;;;10.57;1.23;;;9.00;99.90;;;;;;4972248;28;20023;-87
2022/02/07 14:00:29;;;;;;;7.95;0.70;;;9.10;99.90;;;;;;4962096;28;20025;-86
2022/02/07 14:03:19;;;;;;;14.52;2.13;;;9.20;99.90;;;;;;4977131;28;20014;-87
2022/02/07 14:05:57;;;;;;;8.88;0.80;;;9.10;99.90;;;;;;4970942;28;20034;-87
2022/02/07 14:08:37;;;;;;;6.05;0.73;;;9.10;99.90;;;;;;4973145;28;20508;-87
2022/02/07 14:11:07;;;;;;;8.63;0.80;;;9.10;99.90;;;;;;4948411;28;20349;-87
2022/02/07 14:13:35;;;;;;;15.02;1.33;;;9.10;99.90;;;;;;4975052;28;20377;-86
2022/02/07 14:16:04;;;;;;;7.40;1.02;;;9.10;99.90;;;;;;4944642;28;20041;-87
2022/02/07 14:18:32;;;;;;;8.88;0.95;;;9.10;99.90;;;;;;4944076;28;20030;-87
2022/02/07 14:21:08;;;;;;;9.55;0.90;;;9.00;99.90;;;;;;4963536;28;20477;-87
2022/02/07 14:23:36;;;;;;;8.88;0.77;;;9.00;99.90;;;;;;4957354;28;20206;-87
2022/02/07 14:26:04;;;;;;;9.15;0.60;;;8.80;99.90;;;;;;4958218;28;20057;-87
2022/02/07 14:28:31;;;;;;;8.20;1.00;;;8.70;99.90;;;;;;4988696;28;20018;-87
2022/02/07 14:30:58;;;;;;;5.32;0.50;;;8.50;99.90;;;;;;4944368;28;20514;-87
2022/02/07 14:33:26;;;;;;;12.95;0.80;;;8.40;99.90;;;;;;4943127;28;20018;-87
2022/02/07 14:35:53;;;;;;;8.20;0.77;;;8.30;99.90;;;;;;4957710;28;20039;-87
2022/02/07 14:38:20;;;;;;;4.78;0.70;;;8.30;99.90;;;;;;4959213;28;20030;-87
2022/02/07 14:40:47;;;;;;;7.60;0.80;;;8.20;99.90;;;;;;4962857;28;20077;-86
2022/02/07 14:43:21;;;;;;;6.35;0.55;;;8.20;99.90;;;;;;4957884;28;20022;-87
2022/02/07 14:46:23;;;;;;;8.90;0.90;;;8.10;99.90;;;;;;4956802;28;20046;-87
2022/02/07 14:48:41;;;;;;;6.13;0.65;;;8.00;99.90;;;;;;4957572;28;20598;-86
2022/02/07 14:51:09;;;;;;;4.88;0.50;;;8.00;99.90;;;;;;4960258;28;20038;-86
2022/02/07 14:53:41;;;;;;;7.90;0.75;;;7.80;99.90;;;;;;4943275;28;20046;-86
2022/02/07 14:56:08;;;;;;;6.40;0.60;;;7.80;99.90;;;;;;4971816;28;20056;-86
2022/02/07 14:58:35;;;;;;;9.80;0.90;;;7.70;99.90;;;;;;4943981;28;20033;-86
2022/02/07 15:01:03;;;;;;;5.60;0.60;;;7.60;99.90;;;;;;4977687;28;20033;-86
2022/02/07 15:03:29;;;;;;;6.78;1.05;;;7.70;99.90;;;;;;4975162;28;20253;-86
2022/02/07 15:05:57;;;;;;;6.50;0.60;;;7.70;99.90;;;;;;4956929;28;20045;-86
2022/02/07 15:08:26;;;;;;;8.80;0.70;;;7.70;99.90;;;;;;4962468;28;20044;-87
2022/02/07 15:10:53;;;;;;;5.25;0.40;;;7.70;99.90;;;;;;4959609;28;20034;-86
2022/02/07 15:13:21;;;;;;;9.20;0.93;;;7.70;99.90;;;;;;4942474;28;20469;-86
2022/02/07 15:15:47;;;;;;;6.05;0.70;;;7.60;99.90;;;;;;4956933;28;20021;-86
2022/02/07 15:18:14;;;;;;;8.50;0.80;;;7.60;99.90;;;;;;4960909;28;20033;-86
2022/02/07 15:20:41;;;;;;;8.60;1.00;;;7.50;99.90;;;;;;4966408;28;20029;-86
2022/02/07 15:23:11;;;;;;;6.95;0.80;;;7.50;99.90;;;;;;4966970;28;20022;-86
2022/02/07 15:25:39;;;;;;;6.68;0.50;;;7.40;99.90;;;;;;4964719;28;20026;-88
2022/02/07 15:28:08;;;;;;;5.40;0.85;;;7.40;99.90;;;;;;4978520;28;20061;-86
2022/02/07 15:30:40;;;;;;;6.30;0.80;;;7.30;99.90;;;;;;4967901;28;20046;-87
2022/02/07 15:33:13;;;;;;;;;;;7.20;99.90;;;;;;4982487;28;20034;-86
2022/02/07 15:35:44;;;;;;;7.10;0.68;;;7.10;99.90;;;;;;4960736;28;19918;-86
2022/02/07 15:38:12;;;;;;;3.92;0.45;;;7.00;99.90;;;;;;4967230;28;20033;-87
2022/02/07 15:40:40;;;;;;;5.38;0.60;;;7.00;99.90;;;;;;4978809;28;20045;-86
2022/02/07 15:43:07;;;;;;;4.80;0.47;;;6.90;99.90;;;;;;4968150;28;20025;-86
2022/02/07 15:45:34;;;;;;;6.35;1.00;;;7.00;99.90;;;;;;4960203;28;20382;-86
2022/02/07 15:48:01;;;;;;;8.60;0.57;;;7.10;99.90;;;;;;4975832;28;20049;-86
2022/02/07 15:50:31;;;;;;;7.20;0.73;;;7.20;99.90;;;;;;4957511;28;20029;-86
2022/02/07 15:52:59;;;;;;;6.80;1.00;;;7.20;99.90;;;;;;4960792;28;20508;-86
2022/02/07 15:55:29;;;;;;;8.32;0.65;;;7.30;99.90;;;;;;4942581;28;20050;-86